Terminal Aerodrome Forecast
Issued by NWS

Home | Current Version | Previous Version | Text Only | Print | Product List | Glossary On
Versions: 1 2 3 4 5 6 7 8 9 10 11 12
000
FTUS46 KMFR 222300
TAFLMT
TAF
KLMT 222335Z 2300/2324 22007KT P6SM BKN150
     FM230400 VRB03KT P6SM OVC120
     FM231800 19009KT P6SM OVC100
     FM232100 20018G27KT P6SM SCT060 OVC100=

USA.gov is the U.S. government's official web portal to all federal, state and local government web resources and services.